Time,TemperatureF,DewpointF,PressureIn,WindDirection,WindDirectionDegrees,WindSpeedMPH,WindSpeedGustMPH,Humidity,HourlyPrecipIn,Conditions,Clouds,dailyrainin,SoftwareType,DateUTC
2013-01-17 00:00:00,31.6,31.1,29.84,North,353,0.0,0.0,98,0.00,CLR,SCT,0.00,WeatherDisplay:10.37,2013-01-17 05:00:00,
2013-01-17 00:30:00,30.9,30.4,29.85,East,100,0.0,0.0,98,0.00,FEW,SCT,0.00,WeatherDisplay:10.37,2013-01-17 05:30:00,
2013-01-17 01:00:00,30.4,29.9,29.85,NE,37,0.0,0.0,98,0.00,FEW,SCT,0.00,WeatherDisplay:10.37,2013-01-17 06:00:00,
2013-01-17 01:30:00,29.2,28.7,29.85,ESE,107,0.0,0.0,98,0.00,CLR,SCT,0.00,WeatherDisplay:10.37,2013-01-17 06:30:00,
2013-01-17 02:00:00,29.3,28.8,29.85,ENE,71,0.0,0.0,98,0.00,CLR,SCT,0.00,WeatherDisplay:10.37,2013-01-17 07:00:00,
2013-01-17 02:30:00,28.6,28.1,29.84,SSE,154,0.0,0.0,98,0.00,CLR,SCT,0.00,WeatherDisplay:10.37,2013-01-17 07:30:00,
2013-01-17 03:00:00,28.8,28.3,29.85,ESE,115,0.0,0.0,98,0.00,CLR,SCT,0.00,WeatherDisplay:10.37,2013-01-17 08:00:00,
2013-01-17 03:30:00,27.7,27.2,29.84,ESE,108,0.0,0.0,98,0.00,CLR,SCT,0.00,WeatherDisplay:10.37,2013-01-17 08:30:00,
2013-01-17 04:00:00,29.1,28.6,29.83,NE,35,0.0,0.0,98,0.00,CLR,SCT,0.00,WeatherDisplay:10.37,2013-01-17 09:00:00,
2013-01-17 04:30:00,29.7,29.2,29.83,North,358,0.0,0.0,98,0.00,CLR,SCT,0.00,WeatherDisplay:10.37,2013-01-17 09:30:00,
2013-01-17 05:00:00,30.6,30.1,29.85,West,266,0.0,0.0,98,0.00,CLR,SCT,0.00,WeatherDisplay:10.37,2013-01-17 10:00:00,
2013-01-17 05:30:00,30.6,30.1,29.86,South,178,0.0,0.0,98,0.00,CLR,SCT,0.00,WeatherDisplay:10.37,2013-01-17 10:30:00,
2013-01-17 07:00:00,30.6,30.1,29.86,South,178,0.0,0.0,98,0.00,CLR,SCT,0.00,WeatherDisplay:10.37,2013-01-17 12:00:00,
2013-01-17 07:30:00,30.6,30.1,29.89,South,178,0.0,0.0,98,0.00,CLR,SCT,0.00,WeatherDisplay:10.37,2013-01-17 12:30:00,
2013-01-17 08:00:00,30.6,30.1,29.91,South,178,0.0,0.0,98,0.00,CLR,SCT,0.00,WeatherDisplay:10.37,2013-01-17 13:00:00,
2013-01-17 08:30:00,30.6,30.1,29.92,South,178,0.0,0.0,98,0.00,CLR,SCT,0.00,WeatherDisplay:10.37,2013-01-17 13:30:00,
2013-01-17 09:00:00,30.6,30.1,29.93,South,178,0.0,0.0,98,0.00,CLR,SCT,0.00,WeatherDisplay:10.37,2013-01-17 14:00:00,
2013-01-17 09:30:00,30.6,30.1,29.95,South,178,0.0,0.0,98,0.00,CLR,SCT,0.00,WeatherDisplay:10.37,2013-01-17 14:30:00,
2013-01-17 10:00:00,35.8,35.3,29.95,NW,321,0.0,0.0,98,0.00,CLR,SCT,0.00,WeatherDisplay:10.37,2013-01-17 15:00:00,
2013-01-17 10:30:00,36.7,36.2,29.96,SW,224,0.0,0.0,98,0.00,CLR,SCT,0.00,WeatherDisplay:10.37,2013-01-17 15:30:00,
2013-01-17 11:00:00,36.7,36.2,29.96,SW,224,0.0,0.0,98,0.00,CLR,SCT,0.00,WeatherDisplay:10.37,2013-01-17 16:00:00,
2013-01-17 11:30:00,36.7,36.2,29.97,SW,224,0.0,0.0,98,0.00,FEW,SCT,0.00,WeatherDisplay:10.37,2013-01-17 16:30:00,
2013-01-17 12:00:00,41.7,37.8,29.97,WSW,258,5.0,9.0,86,0.02,RA,SCT,0.02,WeatherDisplay:10.37,2013-01-17 17:00:00,
2013-01-17 12:30:00,41.2,37.6,29.97,SW,224,3.0,9.0,87,0.05,FEW,SCT,0.07,WeatherDisplay:10.37,2013-01-17 17:30:00,
2013-01-17 13:00:00,40.6,34.6,29.98,West,265,6.0,9.0,79,0.05,RA,SCT,0.12,WeatherDisplay:10.37,2013-01-17 18:00:00,
2013-01-17 13:30:00,41.4,33.7,29.98,WNW,303,6.0,12.0,74,0.10,RA,SCT,0.22,WeatherDisplay:10.37,2013-01-17 18:30:00,
2013-01-17 14:00:00,39.9,31.6,29.99,West,268,6.0,23.0,72,0.06,RA,SCT,0.28,WeatherDisplay:10.37,2013-01-17 19:00:00,
2013-01-17 14:30:00,39.7,31.4,29.99,WNW,300,5.0,12.0,72,0.03,RA,SCT,0.31,WeatherDisplay:10.37,2013-01-17 19:30:00,
2013-01-17 15:00:00,39.9,32.6,30.01,NW,310,5.0,10.0,75,0.02,RA,SCT,0.33,WeatherDisplay:10.37,2013-01-17 20:00:00,
2013-01-17 15:30:00,39.0,33.0,30.02,WNW,290,3.0,9.0,79,0.01,BKN,SCT,0.34,WeatherDisplay:10.37,2013-01-17 20:30:00,
2013-01-17 16:00:00,37.6,32.3,30.03,NW,312,3.0,8.0,81,0.01,BKN,SCT,0.35,WeatherDisplay:10.37,2013-01-17 21:00:00,
2013-01-17 16:30:00,36.3,31.0,30.02,West,273,5.0,9.0,81,0.00,BKN,SCT,0.35,WeatherDisplay:10.37,2013-01-17 21:30:00,
2013-01-17 17:00:00,35.4,29.8,30.04,South,186,2.0,8.0,80,0.01,RA,SCT,0.36,WeatherDisplay:10.37,2013-01-17 22:00:00,
2013-01-17 17:30:00,34.4,28.6,30.06,WSW,249,3.0,10.0,79,0.00,OVC,SCT,0.36,WeatherDisplay:10.37,2013-01-17 22:30:00,
2013-01-17 18:00:00,33.3,25.2,30.06,WNW,288,7.0,8.0,72,0.00,OVC,SCT,0.36,WeatherDisplay:10.37,2013-01-17 23:00:00,
2013-01-17 18:30:00,32.7,24.7,30.08,West,276,3.0,9.0,72,0.00,SCT,SCT,0.36,WeatherDisplay:10.37,2013-01-17 23:30:00,
2013-01-17 19:00:00,32.0,25.3,30.09,NW,312,3.0,7.0,76,0.00,SCT,SCT,0.36,WeatherDisplay:10.37,2013-01-18 00:00:00,
2013-01-17 19:29:00,31.5,24.8,30.10,WNW,284,2.0,7.0,76,0.00,CLR,SCT,0.36,WeatherDisplay:10.37,2013-01-18 00:29:00,
2013-01-17 20:00:00,30.7,23.1,30.10,NW,304,7.0,10.0,73,0.00,CLR,SCT,0.36,WeatherDisplay:10.37,2013-01-18 01:00:00,
2013-01-17 20:30:00,30.2,22.6,30.09,NW,314,5.0,7.0,73,0.00,CLR,SCT,0.36,WeatherDisplay:10.37,2013-01-18 01:30:00,
2013-01-17 21:00:00,30.2,22.6,30.09,WNW,291,6.0,8.0,73,0.00,CLR,SCT,0.36,WeatherDisplay:10.37,2013-01-18 02:00:00,
2013-01-17 21:30:00,28.8,19.9,30.09,West,280,5.0,6.0,69,0.00,CLR,SCT,0.36,WeatherDisplay:10.37,2013-01-18 02:30:00,
2013-01-17 22:00:00,27.9,18.7,30.07,WNW,303,5.0,9.0,68,0.00,CLR,SCT,0.36,WeatherDisplay:10.37,2013-01-18 03:00:00,
2013-01-17 22:30:00,27.3,17.1,30.08,SSW,213,5.0,10.0,65,0.00,FEW,SCT,0.36,WeatherDisplay:10.37,2013-01-18 03:30:00,
2013-01-17 23:00:00,27.1,16.2,30.08,SW,224,3.0,6.0,63,0.00,FEW,SCT,0.36,WeatherDisplay:10.37,2013-01-18 04:00:00,